sensor_id;sensor_type;location;lat;lon;timestamp;pressure;altitude;pressure_sealevel;temperature;humidity
45763;BME280;37512;52.408;13.356;2023-07-22T00:01:41;100578.66;;;12.95;100.00
45763;BME280;37512;52.408;13.356;2023-07-22T00:05:42;100576.19;;;12.87;100.00
45763;BME280;37512;52.408;13.356;2023-07-22T00:09:45;100584.06;;;12.77;100.00
45763;BME280;37512;52.408;13.356;2023-07-22T00:13:46;100590.84;;;12.43;100.00
45763;BME280;37512;52.408;13.356;2023-07-22T00:17:48;100585.13;;;12.66;100.00
45763;BME280;37512;52.408;13.356;2023-07-22T00:21:49;100584.63;;;12.56;100.00
45763;BME280;37512;52.408;13.356;2023-07-22T00:25:51;100582.06;;;12.82;100.00
45763;BME280;37512;52.408;13.356;2023-07-22T00:29:52;100579.34;;;12.85;100.00
45763;BME280;37512;52.408;13.356;2023-07-22T00:33:56;100581.59;;;12.72;100.00
45763;BME280;37512;52.408;13.356;2023-07-22T00:37:58;100577.81;;;12.91;100.00
45763;BME280;37512;52.408;13.356;2023-07-22T00:42:00;100577.81;;;12.95;100.00
45763;BME280;37512;52.408;13.356;2023-07-22T00:46:01;100593.06;;;13.08;100.00
45763;BME280;37512;52.408;13.356;2023-07-22T00:50:05;100587.91;;;13.10;100.00
45763;BME280;37512;52.408;13.356;2023-07-22T00:54:08;100587.13;;;13.10;100.00
45763;BME280;37512;52.408;13.356;2023-07-22T00:58:09;100585.53;;;13.12;100.00
45763;BME280;37512;52.408;13.356;2023-07-22T01:02:11;100591.47;;;13.07;100.00
45763;BME280;37512;52.408;13.356;2023-07-22T01:06:15;100591.47;;;13.07;100.00
45763;BME280;37512;52.408;13.356;2023-07-22T01:10:19;100591.47;;;13.07;100.00
45763;BME280;37512;52.408;13.356;2023-07-22T01:14:21;70141.72;;;-146.77;100.00
45763;BME280;37512;52.408;13.356;2023-07-22T01:18:22;70141.72;;;-146.77;100.00
45763;BME280;37512;52.408;13.356;2023-07-22T01:22:24;70141.72;;;-146.77;100.00
45763;BME280;37512;52.408;13.356;2023-07-22T01:26:25;100586.75;;;13.67;100.00
45763;BME280;37512;52.408;13.356;2023-07-22T01:30:28;70141.72;;;-146.77;100.00
45763;BME280;37512;52.408;13.356;2023-07-22T01:34:30;70141.72;;;-146.77;100.00
45763;BME280;37512;52.408;13.356;2023-07-22T01:38:33;70141.72;;;-146.77;100.00
45763;BME280;37512;52.408;13.356;2023-07-22T01:42:35;70141.72;;;-146.77;100.00
45763;BME280;37512;52.408;13.356;2023-07-22T01:46:37;70141.72;;;-146.77;100.00
45763;BME280;37512;52.408;13.356;2023-07-22T01:50:39;70141.72;;;-146.77;100.00
45763;BME280;37512;52.408;13.356;2023-07-22T01:54:40;70141.72;;;-146.77;100.00
45763;BME280;37512;52.408;13.356;2023-07-22T01:58:42;70141.72;;;-146.77;100.00
45763;BME280;37512;52.408;13.356;2023-07-22T02:02:44;70141.72;;;-146.77;100.00
45763;BME280;37512;52.408;13.356;2023-07-22T02:06:46;70141.72;;;-146.77;100.00
45763;BME280;37512;52.408;13.356;2023-07-22T02:10:47;70141.72;;;-146.77;100.00
45763;BME280;37512;52.408;13.356;2023-07-22T02:14:49;70141.72;;;-146.77;100.00
45763;BME280;37512;52.408;13.356;2023-07-22T02:18:51;100586.75;;;13.67;100.00
45763;BME280;37512;52.408;13.356;2023-07-22T02:22:52;100586.75;;;13.67;100.00
45763;BME280;37512;52.408;13.356;2023-07-22T02:26:54;100586.75;;;13.67;100.00
45763;BME280;37512;52.408;13.356;2023-07-22T02:31:00;100586.75;;;13.67;100.00
45763;BME280;37512;52.408;13.356;2023-07-22T02:35:03;100651.88;;;13.37;100.00
45763;BME280;37512;52.408;13.356;2023-07-22T02:39:05;100658.75;;;13.54;100.00
45763;BME280;37512;52.408;13.356;2023-07-22T02:43:08;100659.66;;;13.65;100.00
45763;BME280;37512;52.408;13.356;2023-07-22T02:47:10;100657.50;;;13.44;100.00
45763;BME280;37512;52.408;13.356;2023-07-22T02:51:11;100667.44;;;13.42;100.00
45763;BME280;37512;52.408;13.356;2023-07-22T02:55:16;100681.66;;;13.29;100.00
45763;BME280;37512;52.408;13.356;2023-07-22T02:59:21;100686.91;;;13.38;100.00
45763;BME280;37512;52.408;13.356;2023-07-22T03:03:22;100689.56;;;13.27;100.00
45763;BME280;37512;52.408;13.356;2023-07-22T03:07:24;100678.59;;;13.45;100.00
45763;BME280;37512;52.408;13.356;2023-07-22T03:11:27;100681.50;;;13.15;100.00
45763;BME280;37512;52.408;13.356;2023-07-22T03:15:32;100678.56;;;13.38;100.00
45763;BME280;37512;52.408;13.356;2023-07-22T03:19:34;100681.69;;;13.33;100.00
45763;BME280;37512;52.408;13.356;2023-07-22T03:23:36;100689.56;;;13.24;100.00
45763;BME280;37512;52.408;13.356;2023-07-22T03:27:38;100687.78;;;13.05;100.00
45763;BME280;37512;52.408;13.356;2023-07-22T03:31:40;100692.59;;;13.08;100.00
45763;BME280;37512;52.408;13.356;2023-07-22T03:35:44;100708.03;;;13.39;100.00
45763;BME280;37512;52.408;13.356;2023-07-22T03:39:46;100694.22;;;13.12;100.00
45763;BME280;37512;52.408;13.356;2023-07-22T03:43:47;100696.94;;;13.05;100.00
45763;BME280;37512;52.408;13.356;2023-07-22T03:48:07;100703.13;;;13.25;100.00
45763;BME280;37512;52.408;13.356;2023-07-22T03:52:10;100714.06;;;13.07;100.00
45763;BME280;37512;52.408;13.356;2023-07-22T03:56:15;100706.69;;;13.26;100.00
45763;BME280;37512;52.408;13.356;2023-07-22T04:00:17;100717.00;;;12.84;100.00
45763;BME280;37512;52.408;13.356;2023-07-22T04:04:19;100708.94;;;13.09;100.00
45763;BME280;37512;52.408;13.356;2023-07-22T04:08:20;100716.44;;;13.05;100.00
45763;BME280;37512;52.408;13.356;2023-07-22T04:12:22;100711.72;;;13.09;100.00
45763;BME280;37512;52.408;13.356;2023-07-22T04:16:23;100715.47;;;12.90;100.00
45763;BME280;37512;52.408;13.356;2023-07-22T04:20:25;100724.81;;;13.09;100.00
45763;BME280;37512;52.408;13.356;2023-07-22T04:24:26;100733.09;;;13.02;100.00
45763;BME280;37512;52.408;13.356;2023-07-22T04:28:28;100731.13;;;13.02;100.00
45763;BME280;37512;52.408;13.356;2023-07-22T04:32:29;100729.03;;;13.29;100.00
45763;BME280;37512;52.408;13.356;2023-07-22T04:36:31;100727.06;;;13.30;100.00
45763;BME280;37512;52.408;13.356;2023-07-22T04:40:33;100731.78;;;13.26;100.00
45763;BME280;37512;52.408;13.356;2023-07-22T04:44:35;100739.66;;;13.20;100.00
45763;BME280;37512;52.408;13.356;2023-07-22T04:48:36;100736.44;;;13.14;100.00
45763;BME280;37512;52.408;13.356;2023-07-22T04:52:38;100737.31;;;13.22;100.00
45763;BME280;37512;52.408;13.356;2023-07-22T04:56:41;100742.78;;;13.52;100.00
45763;BME280;37512;52.408;13.356;2023-07-22T05:00:43;100743.88;;;13.37;100.00
45763;BME280;37512;52.408;13.356;2023-07-22T05:04:44;100750.19;;;13.34;100.00
45763;BME280;37512;52.408;13.356;2023-07-22T05:08:46;100752.59;;;13.35;100.00
45763;BME280;37512;52.408;13.356;2023-07-22T05:12:47;100761.91;;;13.50;100.00
45763;BME280;37512;52.408;13.356;2023-07-22T05:16:49;100760.03;;;13.65;100.00
45763;BME280;37512;52.408;13.356;2023-07-22T05:20:50;100755.25;;;13.66;100.00
45763;BME280;37512;52.408;13.356;2023-07-22T05:24:52;100761.16;;;13.57;100.00
45763;BME280;37512;52.408;13.356;2023-07-22T05:28:53;100766.63;;;13.87;100.00
45763;BME280;37512;52.408;13.356;2023-07-22T05:32:55;100771.41;;;13.90;100.00
45763;BME280;37512;52.408;13.356;2023-07-22T05:36:57;100763.84;;;13.91;100.00
45763;BME280;37512;52.408;13.356;2023-07-22T05:40:58;100774.84;;;14.21;100.00
45763;BME280;37512;52.408;13.356;2023-07-22T05:45:00;100774.53;;;14.37;100.00
45763;BME280;37512;52.408;13.356;2023-07-22T05:49:01;100780.44;;;14.21;100.00
45763;BME280;37512;52.408;13.356;2023-07-22T05:53:03;100771.09;;;14.58;100.00
45763;BME280;37512;52.408;13.356;2023-07-22T05:57:05;100778.69;;;14.61;100.00
45763;BME280;37512;52.408;13.356;2023-07-22T06:01:07;100783.44;;;14.57;100.00
45763;BME280;37512;52.408;13.356;2023-07-22T06:05:09;100778.94;;;14.38;100.00
45763;BME280;37512;52.408;13.356;2023-07-22T06:09:10;100785.50;;;14.71;100.00
45763;BME280;37512;52.408;13.356;2023-07-22T06:13:12;100783.16;;;14.80;100.00
45763;BME280;37512;52.408;13.356;2023-07-22T06:17:14;100788.41;;;14.96;100.00
45763;BME280;37512;52.408;13.356;2023-07-22T06:21:16;100800.66;;;14.66;100.00
45763;BME280;37512;52.408;13.356;2023-07-22T06:25:17;100797.59;;;14.93;100.00
45763;BME280;37512;52.408;13.356;2023-07-22T06:29:19;100795.94;;;14.84;100.00
45763;BME280;37512;52.408;13.356;2023-07-22T06:33:20;100799.22;;;15.04;100.00
45763;BME280;37512;52.408;13.356;2023-07-22T06:37:23;100801.66;;;15.13;100.00
45763;BME280;37512;52.408;13.356;2023-07-22T06:41:26;100801.69;;;15.20;100.00
45763;BME280;37512;52.408;13.356;2023-07-22T06:45:27;100806.50;;;15.34;100.00
45763;BME280;37512;52.408;13.356;2023-07-22T06:49:29;100799.69;;;15.17;100.00
45763;BME280;37512;52.408;13.356;2023-07-22T06:53:30;100803.00;;;15.73;100.00
45763;BME280;37512;52.408;13.356;2023-07-22T06:57:33;100819.28;;;15.24;100.00
45763;BME280;37512;52.408;13.356;2023-07-22T07:01:35;100812.56;;;15.61;100.00
45763;BME280;37512;52.408;13.356;2023-07-22T07:05:36;100815.38;;;15.68;100.00
45763;BME280;37512;52.408;13.356;2023-07-22T07:09:38;100810.53;;;15.44;100.00
45763;BME280;37512;52.408;13.356;2023-07-22T07:13:39;100810.53;;;15.44;100.00
45763;BME280;37512;52.408;13.356;2023-07-22T07:17:41;70141.72;;;-146.77;100.00
45763;BME280;37512;52.408;13.356;2023-07-22T07:21:46;70141.72;;;-146.77;100.00
45763;BME280;37512;52.408;13.356;2023-07-22T07:25:49;70141.72;;;-146.77;100.00
45763;BME280;37512;52.408;13.356;2023-07-22T07:30:04;70141.72;;;-146.77;100.00
45763;BME280;37512;52.408;13.356;2023-07-22T07:34:33;70141.72;;;-146.77;100.00
45763;BME280;37512;52.408;13.356;2023-07-22T07:38:37;70141.72;;;-146.77;100.00
45763;BME280;37512;52.408;13.356;2023-07-22T07:42:38;70141.72;;;-146.77;100.00
45763;BME280;37512;52.408;13.356;2023-07-22T07:46:40;70141.72;;;-146.77;100.00
45763;BME280;37512;52.408;13.356;2023-07-22T07:50:42;70141.72;;;-146.77;100.00
45763;BME280;37512;52.408;13.356;2023-07-22T07:54:44;70141.72;;;-146.77;100.00
45763;BME280;37512;52.408;13.356;2023-07-22T07:58:48;70141.72;;;-146.77;100.00
45763;BME280;37512;52.408;13.356;2023-07-22T08:02:50;70141.72;;;-146.77;100.00
45763;BME280;37512;52.408;13.356;2023-07-22T08:06:52;70141.72;;;-146.77;100.00
45763;BME280;37512;52.408;13.356;2023-07-22T08:15:05;70141.72;;;-146.77;100.00
45763;BME280;37512;52.408;13.356;2023-07-22T08:19:07;70141.72;;;-146.77;100.00
45763;BME280;37512;52.408;13.356;2023-07-22T08:23:09;70141.72;;;-146.77;100.00
45763;BME280;37512;52.408;13.356;2023-07-22T08:27:10;70141.72;;;-146.77;100.00
45763;BME280;37512;52.408;13.356;2023-07-22T08:31:12;70141.72;;;-146.77;100.00
45763;BME280;37512;52.408;13.356;2023-07-22T08:35:13;70141.72;;;-146.77;100.00
45763;BME280;37512;52.408;13.356;2023-07-22T08:39:18;70141.72;;;-146.77;100.00
45763;BME280;37512;52.408;13.356;2023-07-22T08:43:21;70141.72;;;-146.77;100.00
45763;BME280;37512;52.408;13.356;2023-07-22T08:47:24;70141.72;;;-146.77;100.00
45763;BME280;37512;52.408;13.356;2023-07-22T08:51:29;70141.72;;;-146.77;100.00
45763;BME280;37512;52.408;13.356;2023-07-22T08:55:34;70141.72;;;-146.77;100.00
45763;BME280;37512;52.408;13.356;2023-07-22T08:59:36;70141.72;;;-146.77;100.00
45763;BME280;37512;52.408;13.356;2023-07-22T09:03:39;70141.72;;;-146.77;100.00
45763;BME280;37512;52.408;13.356;2023-07-22T09:07:41;70141.72;;;-146.77;100.00
45763;BME280;37512;52.408;13.356;2023-07-22T09:11:45;70141.72;;;-146.77;100.00
45763;BME280;37512;52.408;13.356;2023-07-22T09:15:47;70141.72;;;-146.77;100.00
45763;BME280;37512;52.408;13.356;2023-07-22T09:19:52;70141.72;;;-146.77;100.00
45763;BME280;37512;52.408;13.356;2023-07-22T09:23:55;70141.72;;;-146.77;100.00
45763;BME280;37512;52.408;13.356;2023-07-22T09:27:59;70141.72;;;-146.77;100.00
45763;BME280;37512;52.408;13.356;2023-07-22T09:32:03;70141.72;;;-146.77;100.00
45763;BME280;37512;52.408;13.356;2023-07-22T09:36:05;70141.72;;;-146.77;100.00
45763;BME280;37512;52.408;13.356;2023-07-22T09:40:21;70141.72;;;-146.77;100.00
45763;BME280;37512;52.408;13.356;2023-07-22T09:44:22;70141.72;;;-146.77;100.00
45763;BME280;37512;52.408;13.356;2023-07-22T09:48:24;70141.72;;;-146.77;100.00
45763;BME280;37512;52.408;13.356;2023-07-22T09:52:26;70141.72;;;-146.77;100.00
45763;BME280;37512;52.408;13.356;2023-07-22T09:56:30;70141.72;;;-146.77;100.00
45763;BME280;37512;52.408;13.356;2023-07-22T10:00:35;70141.72;;;-146.77;100.00
45763;BME280;37512;52.408;13.356;2023-07-22T10:04:39;70141.72;;;-146.77;100.00
45763;BME280;37512;52.408;13.356;2023-07-22T10:08:43;70141.72;;;-146.77;100.00
45763;BME280;37512;52.408;13.356;2023-07-22T10:12:46;70141.72;;;-146.77;100.00
45763;BME280;37512;52.408;13.356;2023-07-22T10:16:49;70141.72;;;-146.77;100.00
45763;BME280;37512;52.408;13.356;2023-07-22T10:20:51;70141.72;;;-146.77;100.00
45763;BME280;37512;52.408;13.356;2023-07-22T10:24:53;70141.72;;;-146.77;100.00
45763;BME280;37512;52.408;13.356;2023-07-22T10:28:56;70141.72;;;-146.77;100.00
45763;BME280;37512;52.408;13.356;2023-07-22T10:32:59;70141.72;;;-146.77;100.00
45763;BME280;37512;52.408;13.356;2023-07-22T10:37:01;70141.72;;;-146.77;100.00
45763;BME280;37512;52.408;13.356;2023-07-22T10:41:16;70141.72;;;-146.77;100.00
45763;BME280;37512;52.408;13.356;2023-07-22T10:45:32;70141.72;;;-146.77;100.00
45763;BME280;37512;52.408;13.356;2023-07-22T10:49:44;70141.72;;;-146.77;100.00
45763;BME280;37512;52.408;13.356;2023-07-22T10:53:47;70141.72;;;-146.77;100.00
45763;BME280;37512;52.408;13.356;2023-07-22T10:57:51;70141.72;;;-146.77;100.00
45763;BME280;37512;52.408;13.356;2023-07-22T11:01:54;70141.72;;;-146.77;100.00
45763;BME280;37512;52.408;13.356;2023-07-22T11:05:55;70141.72;;;-146.77;100.00
45763;BME280;37512;52.408;13.356;2023-07-22T11:09:57;70141.72;;;-146.77;100.00
45763;BME280;37512;52.408;13.356;2023-07-22T11:18:38;70141.72;;;-146.77;100.00
45763;BME280;37512;52.408;13.356;2023-07-22T11:22:40;70141.72;;;-146.77;100.00
45763;BME280;37512;52.408;13.356;2023-07-22T11:26:42;70141.72;;;-146.77;100.00
45763;BME280;37512;52.408;13.356;2023-07-22T11:30:47;70141.72;;;-146.77;100.00
45763;BME280;37512;52.408;13.356;2023-07-22T11:34:51;70141.72;;;-146.77;100.00
45763;BME280;37512;52.408;13.356;2023-07-22T11:39:04;70141.72;;;-146.77;100.00
45763;BME280;37512;52.408;13.356;2023-07-22T11:43:06;70141.72;;;-146.77;100.00
45763;BME280;37512;52.408;13.356;2023-07-22T11:47:08;70141.72;;;-146.77;100.00
45763;BME280;37512;52.408;13.356;2023-07-22T11:51:10;70141.72;;;-146.77;100.00
45763;BME280;37512;52.408;13.356;2023-07-22T11:55:14;70141.72;;;-146.77;100.00
45763;BME280;37512;52.408;13.356;2023-07-22T11:59:33;70141.72;;;-146.77;100.00
45763;BME280;37512;52.408;13.356;2023-07-22T12:03:35;70141.72;;;-146.77;100.00
45763;BME280;37512;52.408;13.356;2023-07-22T12:07:39;70141.72;;;-146.77;100.00
45763;BME280;37512;52.408;13.356;2023-07-22T12:11:41;70141.72;;;-146.77;100.00
45763;BME280;37512;52.408;13.356;2023-07-22T12:15:43;70141.72;;;-146.77;100.00
45763;BME280;37512;52.408;13.356;2023-07-22T12:20:00;70141.72;;;-146.77;100.00
45763;BME280;37512;52.408;13.356;2023-07-22T12:24:07;100859.66;;;22.40;46.14
45763;BME280;37512;52.408;13.356;2023-07-22T12:28:09;70141.72;;;-146.77;46.14
45763;BME280;37512;52.408;13.356;2023-07-22T12:32:12;70141.72;;;-146.77;nan
45763;BME280;37512;52.408;13.356;2023-07-22T12:36:13;100859.66;;;22.40;46.14
45763;BME280;37512;52.408;13.356;2023-07-22T12:40:15;100859.66;;;22.40;46.14
45763;BME280;37512;52.408;13.356;2023-07-22T12:44:16;70141.72;;;-146.77;100.00
45763;BME280;37512;52.408;13.356;2023-07-22T12:48:18;70141.72;;;-146.77;100.00
45763;BME280;37512;52.408;13.356;2023-07-22T12:52:20;70141.72;;;-146.77;100.00
45763;BME280;37512;52.408;13.356;2023-07-22T12:56:22;70141.72;;;-146.77;100.00
45763;BME280;37512;52.408;13.356;2023-07-22T13:00:23;70141.72;;;-146.77;100.00
45763;BME280;37512;52.408;13.356;2023-07-22T13:04:25;100832.91;;;22.28;48.00
45763;BME280;37512;52.408;13.356;2023-07-22T13:08:26;100832.91;;;22.28;48.00
45763;BME280;37512;52.408;13.356;2023-07-22T13:12:28;100839.81;;;21.58;49.78
45763;BME280;37512;52.408;13.356;2023-07-22T13:16:30;100839.81;;;21.58;49.78
45763;BME280;37512;52.408;13.356;2023-07-22T13:24:33;100839.81;;;21.58;49.78
45763;BME280;37512;52.408;13.356;2023-07-22T13:28:34;70141.72;;;-146.77;100.00
45763;BME280;37512;52.408;13.356;2023-07-22T13:32:43;70141.72;;;-146.77;100.00
45763;BME280;37512;52.408;13.356;2023-07-22T13:36:45;70141.72;;;-146.77;49.75
45763;BME280;37512;52.408;13.356;2023-07-22T13:40:48;100839.81;;;21.58;49.78
45763;BME280;37512;52.408;13.356;2023-07-22T13:44:49;70141.72;;;-146.77;100.00
45763;BME280;37512;52.408;13.356;2023-07-22T13:48:51;70141.72;;;-146.77;100.00
45763;BME280;37512;52.408;13.356;2023-07-22T13:52:52;70141.72;;;-146.77;100.00
45763;BME280;37512;52.408;13.356;2023-07-22T13:56:54;100839.81;;;21.58;49.78
45763;BME280;37512;52.408;13.356;2023-07-22T14:00:55;70141.72;;;-146.77;100.00
45763;BME280;37512;52.408;13.356;2023-07-22T14:04:59;70141.72;;;-146.77;100.00
45763;BME280;37512;52.408;13.356;2023-07-22T14:09:00;70141.72;;;-146.77;100.00
45763;BME280;37512;52.408;13.356;2023-07-22T14:13:05;70141.72;;;-146.77;100.00
45763;BME280;37512;52.408;13.356;2023-07-22T14:17:06;70141.72;;;-146.77;100.00
45763;BME280;37512;52.408;13.356;2023-07-22T14:21:09;70141.72;;;-146.77;100.00
45763;BME280;37512;52.408;13.356;2023-07-22T14:25:13;70141.72;;;-146.77;100.00
45763;BME280;37512;52.408;13.356;2023-07-22T14:29:15;70141.72;;;-146.77;100.00
45763;BME280;37512;52.408;13.356;2023-07-22T14:33:16;70141.72;;;-146.77;100.00
45763;BME280;37512;52.408;13.356;2023-07-22T14:37:27;70141.72;;;-146.77;100.00
45763;BME280;37512;52.408;13.356;2023-07-22T14:41:42;70141.72;;;-146.77;100.00
45763;BME280;37512;52.408;13.356;2023-07-22T14:45:54;70141.72;;;-146.77;100.00
45763;BME280;37512;52.408;13.356;2023-07-22T14:50:10;100839.81;;;21.58;49.78
45763;BME280;37512;52.408;13.356;2023-07-22T14:54:17;70141.72;;;-146.77;100.00
45763;BME280;37512;52.408;13.356;2023-07-22T14:58:19;70141.72;;;-146.77;100.00
45763;BME280;37512;52.408;13.356;2023-07-22T15:02:20;70141.72;;;-146.77;100.00
45763;BME280;37512;52.408;13.356;2023-07-22T15:06:22;100839.81;;;21.58;49.78
45763;BME280;37512;52.408;13.356;2023-07-22T15:10:24;100839.81;;;21.58;49.78
45763;BME280;37512;52.408;13.356;2023-07-22T15:18:27;100839.81;;;21.58;49.78
45763;BME280;37512;52.408;13.356;2023-07-22T15:22:29;100839.81;;;21.58;49.78
45763;BME280;37512;52.408;13.356;2023-07-22T15:26:30;100796.25;;;20.83;54.03
45763;BME280;37512;52.408;13.356;2023-07-22T15:30:32;70141.72;;;-146.77;100.00
45763;BME280;37512;52.408;13.356;2023-07-22T15:34:36;70141.72;;;-146.77;100.00
45763;BME280;37512;52.408;13.356;2023-07-22T15:38:37;70141.72;;;-146.77;100.00
45763;BME280;37512;52.408;13.356;2023-07-22T15:42:39;70141.72;;;-146.77;100.00
45763;BME280;37512;52.408;13.356;2023-07-22T15:46:41;70141.72;;;-146.77;100.00
45763;BME280;37512;52.408;13.356;2023-07-22T15:50:42;70141.72;;;-146.77;100.00
45763;BME280;37512;52.408;13.356;2023-07-22T15:54:44;100774.28;;;21.67;48.04
45763;BME280;37512;52.408;13.356;2023-07-22T15:58:45;100780.28;;;21.85;47.33
45763;BME280;37512;52.408;13.356;2023-07-22T16:02:47;100776.38;;;21.79;49.04
45763;BME280;37512;52.408;13.356;2023-07-22T16:06:49;100776.13;;;22.94;49.39
45763;BME280;37512;52.408;13.356;2023-07-22T16:10:54;100763.03;;;24.03;43.39
45763;BME280;37512;52.408;13.356;2023-07-22T16:14:57;100774.38;;;24.37;42.30
45763;BME280;37512;52.408;13.356;2023-07-22T16:18:59;100767.50;;;22.43;45.58
45763;BME280;37512;52.408;13.356;2023-07-22T16:23:00;70141.72;;;-146.77;nan
45763;BME280;37512;52.408;13.356;2023-07-22T16:27:02;100767.50;;;22.43;45.58
45763;BME280;37512;52.408;13.356;2023-07-22T16:31:04;100767.50;;;22.43;45.58
45763;BME280;37512;52.408;13.356;2023-07-22T16:35:06;70141.72;;;-146.77;100.00
45763;BME280;37512;52.408;13.356;2023-07-22T16:39:08;70141.72;;;-146.77;100.00
45763;BME280;37512;52.408;13.356;2023-07-22T16:43:09;70141.72;;;-146.77;100.00
45763;BME280;37512;52.408;13.356;2023-07-22T16:47:12;70141.72;;;-146.77;100.00
45763;BME280;37512;52.408;13.356;2023-07-22T16:51:13;70141.72;;;-146.77;100.00
45763;BME280;37512;52.408;13.356;2023-07-22T16:55:18;70141.72;;;-146.77;100.00
45763;BME280;37512;52.408;13.356;2023-07-22T16:59:20;70141.72;;;-146.77;100.00
45763;BME280;37512;52.408;13.356;2023-07-22T17:03:23;70141.72;;;-146.77;100.00
45763;BME280;37512;52.408;13.356;2023-07-22T17:07:27;70141.72;;;-146.77;100.00
45763;BME280;37512;52.408;13.356;2023-07-22T17:11:57;70141.72;;;-146.77;100.00
45763;BME280;37512;52.408;13.356;2023-07-22T17:16:21;70141.72;;;-146.77;100.00
45763;BME280;37512;52.408;13.356;2023-07-22T17:20:32;70141.72;;;-146.77;100.00
45763;BME280;37512;52.408;13.356;2023-07-22T17:24:44;70141.72;;;-146.77;100.00
45763;BME280;37512;52.408;13.356;2023-07-22T17:28:45;70141.72;;;-146.77;100.00
45763;BME280;37512;52.408;13.356;2023-07-22T17:32:49;70141.72;;;-146.77;100.00
45763;BME280;37512;52.408;13.356;2023-07-22T17:36:53;70141.72;;;-146.77;100.00
45763;BME280;37512;52.408;13.356;2023-07-22T17:41:03;70141.72;;;-146.77;100.00
45763;BME280;37512;52.408;13.356;2023-07-22T17:45:12;70141.72;;;-146.77;100.00
45763;BME280;37512;52.408;13.356;2023-07-22T17:49:15;70141.72;;;-146.77;100.00
45763;BME280;37512;52.408;13.356;2023-07-22T17:53:28;70141.72;;;-146.77;100.00
45763;BME280;37512;52.408;13.356;2023-07-22T17:57:34;70141.72;;;-146.77;100.00
45763;BME280;37512;52.408;13.356;2023-07-22T18:01:39;70141.72;;;-146.77;100.00
45763;BME280;37512;52.408;13.356;2023-07-22T18:05:48;70141.72;;;-146.77;100.00
45763;BME280;37512;52.408;13.356;2023-07-22T18:09:56;70141.72;;;-146.77;100.00
45763;BME280;37512;52.408;13.356;2023-07-22T18:14:08;70141.72;;;-146.77;100.00
45763;BME280;37512;52.408;13.356;2023-07-22T18:18:13;70141.72;;;-146.77;100.00
45763;BME280;37512;52.408;13.356;2023-07-22T18:22:21;70141.72;;;-146.77;100.00
45763;BME280;37512;52.408;13.356;2023-07-22T18:30:57;70141.72;;;-146.77;100.00
45763;BME280;37512;52.408;13.356;2023-07-22T18:35:01;70141.72;;;-146.77;100.00
45763;BME280;37512;52.408;13.356;2023-07-22T18:39:07;70141.72;;;-146.77;100.00
45763;BME280;37512;52.408;13.356;2023-07-22T18:43:09;70141.72;;;-146.77;100.00
45763;BME280;37512;52.408;13.356;2023-07-22T18:47:15;70141.72;;;-146.77;100.00
45763;BME280;37512;52.408;13.356;2023-07-22T18:51:17;70141.72;;;-146.77;100.00
45763;BME280;37512;52.408;13.356;2023-07-22T18:55:19;70141.72;;;-146.77;100.00
45763;BME280;37512;52.408;13.356;2023-07-22T18:59:21;70141.72;;;-146.77;100.00
45763;BME280;37512;52.408;13.356;2023-07-22T19:03:29;70141.72;;;-146.77;100.00
45763;BME280;37512;52.408;13.356;2023-07-22T19:07:32;70141.72;;;-146.77;100.00
45763;BME280;37512;52.408;13.356;2023-07-22T19:11:36;70141.72;;;-146.77;100.00
45763;BME280;37512;52.408;13.356;2023-07-22T19:15:38;70141.72;;;-146.77;100.00
45763;BME280;37512;52.408;13.356;2023-07-22T19:19:40;70141.72;;;-146.77;100.00
45763;BME280;37512;52.408;13.356;2023-07-22T19:23:43;70141.72;;;-146.77;100.00
45763;BME280;37512;52.408;13.356;2023-07-22T19:27:44;70141.72;;;-146.77;100.00
45763;BME280;37512;52.408;13.356;2023-07-22T19:31:46;70141.72;;;-146.77;100.00
45763;BME280;37512;52.408;13.356;2023-07-22T19:36:09;70141.72;;;-146.77;100.00
45763;BME280;37512;52.408;13.356;2023-07-22T19:40:11;70141.72;;;-146.77;100.00
45763;BME280;37512;52.408;13.356;2023-07-22T19:44:13;70141.72;;;-146.77;100.00
45763;BME280;37512;52.408;13.356;2023-07-22T19:48:14;70141.72;;;-146.77;100.00
45763;BME280;37512;52.408;13.356;2023-07-22T19:52:16;70141.72;;;-146.77;100.00
45763;BME280;37512;52.408;13.356;2023-07-22T19:56:19;70141.72;;;-146.77;100.00
45763;BME280;37512;52.408;13.356;2023-07-22T20:00:21;70141.72;;;-146.77;100.00
45763;BME280;37512;52.408;13.356;2023-07-22T20:04:22;70141.72;;;-146.77;100.00
45763;BME280;37512;52.408;13.356;2023-07-22T20:08:24;70141.72;;;-146.77;100.00
45763;BME280;37512;52.408;13.356;2023-07-22T20:12:26;70141.72;;;-146.77;100.00
45763;BME280;37512;52.408;13.356;2023-07-22T20:16:28;70141.72;;;-146.77;100.00
45763;BME280;37512;52.408;13.356;2023-07-22T20:20:29;70141.72;;;-146.77;100.00
45763;BME280;37512;52.408;13.356;2023-07-22T20:24:31;70141.72;;;-146.77;100.00
45763;BME280;37512;52.408;13.356;2023-07-22T20:28:36;70141.72;;;-146.77;100.00
45763;BME280;37512;52.408;13.356;2023-07-22T20:32:39;70141.72;;;-146.77;100.00
45763;BME280;37512;52.408;13.356;2023-07-22T20:36:40;70141.72;;;-146.77;100.00
45763;BME280;37512;52.408;13.356;2023-07-22T20:40:42;70141.72;;;-146.77;100.00
45763;BME280;37512;52.408;13.356;2023-07-22T20:44:44;70141.72;;;-146.77;100.00
45763;BME280;37512;52.408;13.356;2023-07-22T20:48:46;70141.72;;;-146.77;100.00
45763;BME280;37512;52.408;13.356;2023-07-22T20:52:47;70141.72;;;-146.77;100.00